<?xml version="1.0" encoding="UTF-8" standalone="no" ?>
<gpx xmlns="http://www.topografix.com/GPX/1/1" xmlns:xsi="http://www.w3.org/2001/XMLSchema-instance" xsi:schemaLocation="http://www.topografix.com/GPX/1/1 http://www.topografix.com/GPX/1/1/gpx.xsd" version="1.1" creator="VisuGPX - https://www.visugpx.com">
  <metadata>
    <name>7887308-Lons-Perrigny.17</name>
  </metadata>
  <trk>
    <name><![CDATA[7887308-Lons-Perrigny.17]]></name>
    <extensions>
      <line xmlns="http://www.topografix.com/GPX/gpx_style/0/2">
        <color>0000FF</color>
        <width>4</width>
      </line>
    </extensions>
    <trkseg>
      <trkpt lat="46.66512" lon="5.58173">
        <ele>286</ele>
        <time>2020-06-18T08:46:40Z</time>
      </trkpt>
      <trkpt lat="46.66512" lon="5.58173">
        <ele>286</ele>
        <time>2020-06-18T08:46:40Z</time>
      </trkpt>
      <trkpt lat="46.66514" lon="5.58174">
        <ele>286</ele>
        <time>2020-06-18T08:46:43Z</time>
      </trkpt>
      <trkpt lat="46.66517" lon="5.58169">
        <ele>286</ele>
        <time>2020-06-18T08:46:49Z</time>
      </trkpt>
      <trkpt lat="46.66517" lon="5.58171">
        <ele>286</ele>
        <time>2020-06-18T08:46:51Z</time>
      </trkpt>
      <trkpt lat="46.6651" lon="5.58171">
        <ele>286</ele>
        <time>2020-06-18T08:47:00Z</time>
      </trkpt>
      <trkpt lat="46.66495" lon="5.58165">
        <ele>286</ele>
        <time>2020-06-18T08:47:21Z</time>
      </trkpt>
      <trkpt lat="46.66439" lon="5.58129">
        <ele>285</ele>
        <time>2020-06-18T08:48:43Z</time>
      </trkpt>
      <trkpt lat="46.66419" lon="5.58119">
        <ele>286</ele>
        <time>2020-06-18T08:49:11Z</time>
      </trkpt>
      <trkpt lat="46.66414" lon="5.58118">
        <ele>286</ele>
        <time>2020-06-18T08:49:17Z</time>
      </trkpt>
      <trkpt lat="46.66394" lon="5.58122">
        <ele>286</ele>
        <time>2020-06-18T08:49:44Z</time>
      </trkpt>
      <trkpt lat="46.66378" lon="5.58134">
        <ele>286</ele>
        <time>2020-06-18T08:50:08Z</time>
      </trkpt>
      <trkpt lat="46.66356" lon="5.58188">
        <ele>286</ele>
        <time>2020-06-18T08:51:06Z</time>
      </trkpt>
      <trkpt lat="46.66318" lon="5.58264">
        <ele>287</ele>
        <time>2020-06-18T08:52:32Z</time>
      </trkpt>
      <trkpt lat="46.66243" lon="5.58375">
        <ele>288</ele>
        <time>2020-06-18T08:54:55Z</time>
      </trkpt>
      <trkpt lat="46.66222" lon="5.58389">
        <ele>288</ele>
        <time>2020-06-18T08:55:26Z</time>
      </trkpt>
      <trkpt lat="46.66208" lon="5.58407">
        <ele>289</ele>
        <time>2020-06-18T08:55:50Z</time>
      </trkpt>
      <trkpt lat="46.6619" lon="5.58442">
        <ele>289</ele>
        <time>2020-06-18T08:56:30Z</time>
      </trkpt>
      <trkpt lat="46.66179" lon="5.5847">
        <ele>290</ele>
        <time>2020-06-18T08:57:00Z</time>
      </trkpt>
      <trkpt lat="46.66102" lon="5.58588">
        <ele>295</ele>
        <time>2020-06-18T08:59:29Z</time>
      </trkpt>
      <trkpt lat="46.66072" lon="5.58655">
        <ele>296</ele>
        <time>2020-06-18T09:00:42Z</time>
      </trkpt>
      <trkpt lat="46.66033" lon="5.58727">
        <ele>295</ele>
        <time>2020-06-18T09:02:06Z</time>
      </trkpt>
      <trkpt lat="46.6602" lon="5.58766">
        <ele>296</ele>
        <time>2020-06-18T09:02:46Z</time>
      </trkpt>
      <trkpt lat="46.66017" lon="5.588">
        <ele>296</ele>
        <time>2020-06-18T09:03:18Z</time>
      </trkpt>
      <trkpt lat="46.66006" lon="5.58862">
        <ele>297</ele>
        <time>2020-06-18T09:04:16Z</time>
      </trkpt>
      <trkpt lat="46.6598" lon="5.58935">
        <ele>298</ele>
        <time>2020-06-18T09:05:32Z</time>
      </trkpt>
      <trkpt lat="46.65957" lon="5.59018">
        <ele>298</ele>
        <time>2020-06-18T09:06:53Z</time>
      </trkpt>
      <trkpt lat="46.65904" lon="5.59083">
        <ele>298</ele>
        <time>2020-06-18T09:08:26Z</time>
      </trkpt>
      <trkpt lat="46.65867" lon="5.59116">
        <ele>300</ele>
        <time>2020-06-18T09:09:24Z</time>
      </trkpt>
      <trkpt lat="46.65838" lon="5.59158">
        <ele>301</ele>
        <time>2020-06-18T09:10:18Z</time>
      </trkpt>
      <trkpt lat="46.65761" lon="5.59235">
        <ele>304</ele>
        <time>2020-06-18T09:12:23Z</time>
      </trkpt>
      <trkpt lat="46.65742" lon="5.5928">
        <ele>304</ele>
        <time>2020-06-18T09:13:11Z</time>
      </trkpt>
      <trkpt lat="46.65733" lon="5.59308">
        <ele>304</ele>
        <time>2020-06-18T09:13:40Z</time>
      </trkpt>
      <trkpt lat="46.65718" lon="5.59339">
        <ele>305</ele>
        <time>2020-06-18T09:14:14Z</time>
      </trkpt>
      <trkpt lat="46.65685" lon="5.59381">
        <ele>307</ele>
        <time>2020-06-18T09:15:13Z</time>
      </trkpt>
      <trkpt lat="46.65643" lon="5.5945">
        <ele>308</ele>
        <time>2020-06-18T09:16:37Z</time>
      </trkpt>
      <trkpt lat="46.65625" lon="5.59484">
        <ele>308</ele>
        <time>2020-06-18T09:17:17Z</time>
      </trkpt>
      <trkpt lat="46.65603" lon="5.59471">
        <ele>309</ele>
        <time>2020-06-18T09:17:48Z</time>
      </trkpt>
      <trkpt lat="46.65586" lon="5.59452">
        <ele>311</ele>
        <time>2020-06-18T09:18:17Z</time>
      </trkpt>
      <trkpt lat="46.65581" lon="5.5944">
        <ele>311</ele>
        <time>2020-06-18T09:18:30Z</time>
      </trkpt>
      <trkpt lat="46.65567" lon="5.59457">
        <ele>312</ele>
        <time>2020-06-18T09:18:54Z</time>
      </trkpt>
      <trkpt lat="46.65516" lon="5.59537">
        <ele>315</ele>
        <time>2020-06-18T09:20:34Z</time>
      </trkpt>
      <trkpt lat="46.65502" lon="5.59554">
        <ele>315</ele>
        <time>2020-06-18T09:20:59Z</time>
      </trkpt>
      <trkpt lat="46.65478" lon="5.59603">
        <ele>314</ele>
        <time>2020-06-18T09:21:54Z</time>
      </trkpt>
      <trkpt lat="46.6544" lon="5.59641">
        <ele>315</ele>
        <time>2020-06-18T09:22:55Z</time>
      </trkpt>
      <trkpt lat="46.65425" lon="5.59662">
        <ele>314</ele>
        <time>2020-06-18T09:23:23Z</time>
      </trkpt>
      <trkpt lat="46.65409" lon="5.59698">
        <ele>314</ele>
        <time>2020-06-18T09:24:02Z</time>
      </trkpt>
      <trkpt lat="46.65402" lon="5.59733">
        <ele>314</ele>
        <time>2020-06-18T09:24:36Z</time>
      </trkpt>
      <trkpt lat="46.65413" lon="5.59791">
        <ele>314.1</ele>
        <time>2020-06-18T09:25:31Z</time>
      </trkpt>
      <trkpt lat="46.65396" lon="5.59823">
        <ele>316</ele>
        <time>2020-06-18T09:26:06Z</time>
      </trkpt>
      <trkpt lat="46.65383" lon="5.59837">
        <ele>316</ele>
        <time>2020-06-18T09:26:27Z</time>
      </trkpt>
      <trkpt lat="46.65354" lon="5.59854">
        <ele>316</ele>
        <time>2020-06-18T09:27:09Z</time>
      </trkpt>
      <trkpt lat="46.65289" lon="5.59909">
        <ele>317</ele>
        <time>2020-06-18T09:28:49Z</time>
      </trkpt>
      <trkpt lat="46.65283" lon="5.59933">
        <ele>318</ele>
        <time>2020-06-18T09:29:13Z</time>
      </trkpt>
      <trkpt lat="46.65268" lon="5.59957">
        <ele>318</ele>
        <time>2020-06-18T09:29:42Z</time>
      </trkpt>
      <trkpt lat="46.65258" lon="5.59998">
        <ele>318</ele>
        <time>2020-06-18T09:30:22Z</time>
      </trkpt>
      <trkpt lat="46.65254" lon="5.60026">
        <ele>320</ele>
        <time>2020-06-18T09:30:48Z</time>
      </trkpt>
      <trkpt lat="46.65277" lon="5.60022">
        <ele>320</ele>
        <time>2020-06-18T09:31:19Z</time>
      </trkpt>
      <trkpt lat="46.65299" lon="5.60011">
        <ele>319</ele>
        <time>2020-06-18T09:31:50Z</time>
      </trkpt>
      <trkpt lat="46.65309" lon="5.60035">
        <ele>320</ele>
        <time>2020-06-18T09:32:16Z</time>
      </trkpt>
      <trkpt lat="46.65296" lon="5.60104">
        <ele>326</ele>
        <time>2020-06-18T09:33:22Z</time>
      </trkpt>
      <trkpt lat="46.65268" lon="5.60151">
        <ele>336</ele>
        <time>2020-06-18T09:34:19Z</time>
      </trkpt>
      <trkpt lat="46.6524" lon="5.60182">
        <ele>344</ele>
        <time>2020-06-18T09:35:06Z</time>
      </trkpt>
      <trkpt lat="46.65221" lon="5.60207">
        <ele>351</ele>
        <time>2020-06-18T09:35:40Z</time>
      </trkpt>
      <trkpt lat="46.65208" lon="5.60236">
        <ele>358</ele>
        <time>2020-06-18T09:36:12Z</time>
      </trkpt>
      <trkpt lat="46.65178" lon="5.60277">
        <ele>367</ele>
        <time>2020-06-18T09:37:06Z</time>
      </trkpt>
      <trkpt lat="46.65169" lon="5.60306">
        <ele>376</ele>
        <time>2020-06-18T09:37:36Z</time>
      </trkpt>
      <trkpt lat="46.65163" lon="5.60318">
        <ele>379</ele>
        <time>2020-06-18T09:37:49Z</time>
      </trkpt>
      <trkpt lat="46.65141" lon="5.6034">
        <ele>382</ele>
        <time>2020-06-18T09:38:25Z</time>
      </trkpt>
      <trkpt lat="46.65095" lon="5.60368">
        <ele>383</ele>
        <time>2020-06-18T09:39:31Z</time>
      </trkpt>
      <trkpt lat="46.65085" lon="5.60377">
        <ele>384</ele>
        <time>2020-06-18T09:39:47Z</time>
      </trkpt>
      <trkpt lat="46.65039" lon="5.60403">
        <ele>387</ele>
        <time>2020-06-18T09:40:53Z</time>
      </trkpt>
      <trkpt lat="46.65018" lon="5.6042">
        <ele>389</ele>
        <time>2020-06-18T09:41:25Z</time>
      </trkpt>
      <trkpt lat="46.6499" lon="5.6043">
        <ele>388</ele>
        <time>2020-06-18T09:42:03Z</time>
      </trkpt>
      <trkpt lat="46.64978" lon="5.60441">
        <ele>390</ele>
        <time>2020-06-18T09:42:22Z</time>
      </trkpt>
      <trkpt lat="46.64943" lon="5.60458">
        <ele>391</ele>
        <time>2020-06-18T09:43:12Z</time>
      </trkpt>
      <trkpt lat="46.64921" lon="5.60476">
        <ele>394</ele>
        <time>2020-06-18T09:43:45Z</time>
      </trkpt>
      <trkpt lat="46.64893" lon="5.60484">
        <ele>395</ele>
        <time>2020-06-18T09:44:23Z</time>
      </trkpt>
      <trkpt lat="46.64881" lon="5.6049">
        <ele>396</ele>
        <time>2020-06-18T09:44:40Z</time>
      </trkpt>
      <trkpt lat="46.64844" lon="5.60512">
        <ele>400</ele>
        <time>2020-06-18T09:45:34Z</time>
      </trkpt>
      <trkpt lat="46.64811" lon="5.60541">
        <ele>407</ele>
        <time>2020-06-18T09:46:25Z</time>
      </trkpt>
      <trkpt lat="46.64792" lon="5.60548">
        <ele>407</ele>
        <time>2020-06-18T09:46:51Z</time>
      </trkpt>
      <trkpt lat="46.64785" lon="5.60554">
        <ele>409</ele>
        <time>2020-06-18T09:47:02Z</time>
      </trkpt>
      <trkpt lat="46.64776" lon="5.60588">
        <ele>419</ele>
        <time>2020-06-18T09:47:35Z</time>
      </trkpt>
      <trkpt lat="46.6476" lon="5.60599">
        <ele>422</ele>
        <time>2020-06-18T09:47:59Z</time>
      </trkpt>
      <trkpt lat="46.64751" lon="5.60599">
        <ele>422</ele>
        <time>2020-06-18T09:48:11Z</time>
      </trkpt>
      <trkpt lat="46.64742" lon="5.60606">
        <ele>423</ele>
        <time>2020-06-18T09:48:25Z</time>
      </trkpt>
      <trkpt lat="46.64731" lon="5.60626">
        <ele>429</ele>
        <time>2020-06-18T09:48:48Z</time>
      </trkpt>
      <trkpt lat="46.64716" lon="5.60646">
        <ele>434</ele>
        <time>2020-06-18T09:49:15Z</time>
      </trkpt>
      <trkpt lat="46.64695" lon="5.60697">
        <ele>450</ele>
        <time>2020-06-18T09:50:10Z</time>
      </trkpt>
      <trkpt lat="46.64679" lon="5.60721">
        <ele>458</ele>
        <time>2020-06-18T09:50:40Z</time>
      </trkpt>
      <trkpt lat="46.64677" lon="5.60727">
        <ele>460</ele>
        <time>2020-06-18T09:50:46Z</time>
      </trkpt>
      <trkpt lat="46.64678" lon="5.6073">
        <ele>461</ele>
        <time>2020-06-18T09:50:49Z</time>
      </trkpt>
      <trkpt lat="46.6468" lon="5.60729">
        <ele>461</ele>
        <time>2020-06-18T09:50:52Z</time>
      </trkpt>
      <trkpt lat="46.6468" lon="5.60725">
        <ele>459</ele>
        <time>2020-06-18T09:50:56Z</time>
      </trkpt>
      <trkpt lat="46.64577" lon="5.60814">
        <ele>508</ele>
        <time>2020-06-18T09:53:36Z</time>
      </trkpt>
      <trkpt lat="46.64683" lon="5.60805">
        <ele>487</ele>
        <time>2020-06-18T09:55:57Z</time>
      </trkpt>
      <trkpt lat="46.64682" lon="5.60811">
        <ele>489</ele>
        <time>2020-06-18T09:56:03Z</time>
      </trkpt>
      <trkpt lat="46.64679" lon="5.60819">
        <ele>491.4</ele>
        <time>2020-06-18T09:56:16Z</time>
      </trkpt>
      <trkpt lat="46.64677" lon="5.60831">
        <ele>494.7</ele>
        <time>2020-06-18T09:56:23Z</time>
      </trkpt>
      <trkpt lat="46.64681" lon="5.60843">
        <ele>498</ele>
        <time>2020-06-18T09:56:39Z</time>
      </trkpt>
      <trkpt lat="46.64672" lon="5.60849">
        <ele>498.1</ele>
      </trkpt>
      <trkpt lat="46.64678" lon="5.60857">
        <ele>500.5</ele>
        <time>2020-06-18T09:57:00Z</time>
      </trkpt>
      <trkpt lat="46.64691" lon="5.60868">
        <ele>504.5</ele>
      </trkpt>
      <trkpt lat="46.647" lon="5.60858">
        <ele>504</ele>
        <time>2020-06-18T09:57:09Z</time>
      </trkpt>
      <trkpt lat="46.64716" lon="5.60832">
        <ele>501</ele>
        <time>2020-06-18T09:57:41Z</time>
      </trkpt>
      <trkpt lat="46.64743" lon="5.60799">
        <ele>494</ele>
        <time>2020-06-18T09:58:28Z</time>
      </trkpt>
      <trkpt lat="46.64752" lon="5.6079">
        <ele>492</ele>
        <time>2020-06-18T09:58:42Z</time>
      </trkpt>
      <trkpt lat="46.64761" lon="5.60786">
        <ele>493</ele>
        <time>2020-06-18T09:58:55Z</time>
      </trkpt>
      <trkpt lat="46.64763" lon="5.60791">
        <ele>495</ele>
        <time>2020-06-18T09:59:00Z</time>
      </trkpt>
      <trkpt lat="46.6476" lon="5.60816">
        <ele>503</ele>
        <time>2020-06-18T09:59:23Z</time>
      </trkpt>
      <trkpt lat="46.64752" lon="5.60848">
        <ele>509</ele>
        <time>2020-06-18T09:59:54Z</time>
      </trkpt>
      <trkpt lat="46.6474" lon="5.60875">
        <ele>513</ele>
        <time>2020-06-18T10:00:24Z</time>
      </trkpt>
      <trkpt lat="46.64731" lon="5.60906">
        <ele>518</ele>
        <time>2020-06-18T10:00:55Z</time>
      </trkpt>
      <trkpt lat="46.64717" lon="5.60936">
        <ele>520</ele>
        <time>2020-06-18T10:01:28Z</time>
      </trkpt>
      <trkpt lat="46.64705" lon="5.60953">
        <ele>521</ele>
        <time>2020-06-18T10:01:50Z</time>
      </trkpt>
      <trkpt lat="46.64691" lon="5.60965">
        <ele>522</ele>
        <time>2020-06-18T10:02:12Z</time>
      </trkpt>
      <trkpt lat="46.64676" lon="5.60969">
        <ele>521</ele>
        <time>2020-06-18T10:02:32Z</time>
      </trkpt>
      <trkpt lat="46.6466" lon="5.60967">
        <ele>521</ele>
        <time>2020-06-18T10:02:54Z</time>
      </trkpt>
      <trkpt lat="46.64634" lon="5.60954">
        <ele>523</ele>
        <time>2020-06-18T10:03:30Z</time>
      </trkpt>
      <trkpt lat="46.64611" lon="5.60937">
        <ele>525</ele>
        <time>2020-06-18T10:04:05Z</time>
      </trkpt>
      <trkpt lat="46.64602" lon="5.60935">
        <ele>526</ele>
        <time>2020-06-18T10:04:17Z</time>
      </trkpt>
      <trkpt lat="46.64599" lon="5.60932">
        <ele>527</ele>
        <time>2020-06-18T10:04:22Z</time>
      </trkpt>
      <trkpt lat="46.64607" lon="5.60927">
        <ele>525</ele>
        <time>2020-06-18T10:04:33Z</time>
      </trkpt>
      <trkpt lat="46.64602" lon="5.60927">
        <ele>526</ele>
        <time>2020-06-18T10:04:40Z</time>
      </trkpt>
      <trkpt lat="46.64602" lon="5.60929">
        <ele>526</ele>
        <time>2020-06-18T10:04:42Z</time>
      </trkpt>
      <trkpt lat="46.64605" lon="5.60929">
        <ele>525</ele>
        <time>2020-06-18T10:04:46Z</time>
      </trkpt>
      <trkpt lat="46.64608" lon="5.60922">
        <ele>524</ele>
        <time>2020-06-18T10:04:54Z</time>
      </trkpt>
      <trkpt lat="46.64604" lon="5.60907">
        <ele>523</ele>
        <time>2020-06-18T10:05:08Z</time>
      </trkpt>
      <trkpt lat="46.64586" lon="5.60882">
        <ele>523</ele>
        <time>2020-06-18T10:05:41Z</time>
      </trkpt>
      <trkpt lat="46.64562" lon="5.60859">
        <ele>522</ele>
        <time>2020-06-18T10:06:20Z</time>
      </trkpt>
      <trkpt lat="46.64551" lon="5.60852">
        <ele>522</ele>
        <time>2020-06-18T10:06:36Z</time>
      </trkpt>
      <trkpt lat="46.64508" lon="5.60839">
        <ele>524</ele>
        <time>2020-06-18T10:07:34Z</time>
      </trkpt>
      <trkpt lat="46.64469" lon="5.60824">
        <ele>523</ele>
        <time>2020-06-18T10:08:28Z</time>
      </trkpt>
      <trkpt lat="46.64443" lon="5.60808">
        <ele>519</ele>
        <time>2020-06-18T10:09:06Z</time>
      </trkpt>
      <trkpt lat="46.64371" lon="5.60815">
        <ele>527</ele>
        <time>2020-06-18T10:10:42Z</time>
      </trkpt>
      <trkpt lat="46.64345" lon="5.60811">
        <ele>527</ele>
        <time>2020-06-18T10:11:17Z</time>
      </trkpt>
      <trkpt lat="46.64319" lon="5.60816">
        <ele>530</ele>
        <time>2020-06-18T10:11:52Z</time>
      </trkpt>
      <trkpt lat="46.64308" lon="5.60815">
        <ele>530</ele>
        <time>2020-06-18T10:12:07Z</time>
      </trkpt>
      <trkpt lat="46.64272" lon="5.60819">
        <ele>532</ele>
        <time>2020-06-18T10:12:55Z</time>
      </trkpt>
      <trkpt lat="46.64254" lon="5.60823">
        <ele>534</ele>
        <time>2020-06-18T10:13:19Z</time>
      </trkpt>
      <trkpt lat="46.64238" lon="5.60816">
        <ele>533</ele>
        <time>2020-06-18T10:13:42Z</time>
      </trkpt>
      <trkpt lat="46.64224" lon="5.60815">
        <ele>533</ele>
        <time>2020-06-18T10:14:00Z</time>
      </trkpt>
      <trkpt lat="46.64182" lon="5.60823">
        <ele>538</ele>
        <time>2020-06-18T10:14:57Z</time>
      </trkpt>
      <trkpt lat="46.64149" lon="5.60826">
        <ele>539</ele>
        <time>2020-06-18T10:15:41Z</time>
      </trkpt>
      <trkpt lat="46.64077" lon="5.60817">
        <ele>537</ele>
        <time>2020-06-18T10:17:17Z</time>
      </trkpt>
      <trkpt lat="46.64044" lon="5.60824">
        <ele>540</ele>
        <time>2020-06-18T10:18:02Z</time>
      </trkpt>
      <trkpt lat="46.64011" lon="5.60827">
        <ele>542</ele>
        <time>2020-06-18T10:18:46Z</time>
      </trkpt>
      <trkpt lat="46.63979" lon="5.60835">
        <ele>544</ele>
        <time>2020-06-18T10:19:29Z</time>
      </trkpt>
      <trkpt lat="46.63965" lon="5.60834">
        <ele>544</ele>
        <time>2020-06-18T10:19:48Z</time>
      </trkpt>
      <trkpt lat="46.639" lon="5.60849">
        <ele>543</ele>
        <time>2020-06-18T10:21:16Z</time>
      </trkpt>
      <trkpt lat="46.63884" lon="5.60848">
        <ele>541</ele>
        <time>2020-06-18T10:21:37Z</time>
      </trkpt>
      <trkpt lat="46.6384" lon="5.60866">
        <ele>540</ele>
        <time>2020-06-18T10:22:38Z</time>
      </trkpt>
      <trkpt lat="46.6377" lon="5.60902">
        <ele>533</ele>
        <time>2020-06-18T10:24:17Z</time>
      </trkpt>
      <trkpt lat="46.63718" lon="5.60951">
        <ele>525</ele>
        <time>2020-06-18T10:25:40Z</time>
      </trkpt>
      <trkpt lat="46.63713" lon="5.60962">
        <ele>525</ele>
        <time>2020-06-18T10:25:52Z</time>
      </trkpt>
      <trkpt lat="46.63727" lon="5.61006">
        <ele>534</ele>
        <time>2020-06-18T10:26:36Z</time>
      </trkpt>
      <trkpt lat="46.6373" lon="5.61027">
        <ele>534</ele>
        <time>2020-06-18T10:26:56Z</time>
      </trkpt>
      <trkpt lat="46.63743" lon="5.61069">
        <ele>537</ele>
        <time>2020-06-18T10:27:38Z</time>
      </trkpt>
      <trkpt lat="46.63749" lon="5.61113">
        <ele>537</ele>
        <time>2020-06-18T10:28:19Z</time>
      </trkpt>
      <trkpt lat="46.63747" lon="5.61135">
        <ele>536</ele>
        <time>2020-06-18T10:28:40Z</time>
      </trkpt>
      <trkpt lat="46.63749" lon="5.61218">
        <ele>534</ele>
        <time>2020-06-18T10:29:56Z</time>
      </trkpt>
      <trkpt lat="46.63747" lon="5.61241">
        <ele>532</ele>
        <time>2020-06-18T10:30:17Z</time>
      </trkpt>
      <trkpt lat="46.63722" lon="5.61269">
        <ele>514</ele>
        <time>2020-06-18T10:30:59Z</time>
      </trkpt>
      <trkpt lat="46.63719" lon="5.6127">
        <ele>513</ele>
        <time>2020-06-18T10:31:03Z</time>
      </trkpt>
      <trkpt lat="46.63721" lon="5.61269">
        <ele>514</ele>
        <time>2020-06-18T10:31:06Z</time>
      </trkpt>
      <trkpt lat="46.6372" lon="5.61265">
        <ele>514</ele>
        <time>2020-06-18T10:31:10Z</time>
      </trkpt>
      <trkpt lat="46.63721" lon="5.61267">
        <ele>514</ele>
        <time>2020-06-18T10:31:12Z</time>
      </trkpt>
      <trkpt lat="46.63722" lon="5.61265">
        <ele>515</ele>
        <time>2020-06-18T10:31:15Z</time>
      </trkpt>
      <trkpt lat="46.63723" lon="5.61267">
        <ele>515</ele>
        <time>2020-06-18T10:31:17Z</time>
      </trkpt>
      <trkpt lat="46.63716" lon="5.61267">
        <ele>512</ele>
        <time>2020-06-18T10:31:26Z</time>
      </trkpt>
      <trkpt lat="46.63719" lon="5.61269">
        <ele>513</ele>
        <time>2020-06-18T10:31:31Z</time>
      </trkpt>
      <trkpt lat="46.63719" lon="5.61272">
        <ele>512</ele>
        <time>2020-06-18T10:31:33Z</time>
      </trkpt>
      <trkpt lat="46.63722" lon="5.61264">
        <ele>515</ele>
        <time>2020-06-18T10:31:42Z</time>
      </trkpt>
      <trkpt lat="46.63727" lon="5.61269">
        <ele>517</ele>
        <time>2020-06-18T10:31:50Z</time>
      </trkpt>
      <trkpt lat="46.63741" lon="5.61266">
        <ele>525</ele>
        <time>2020-06-18T10:32:09Z</time>
      </trkpt>
      <trkpt lat="46.63763" lon="5.6129">
        <ele>528</ele>
        <time>2020-06-18T10:32:45Z</time>
      </trkpt>
      <trkpt lat="46.63793" lon="5.61301">
        <ele>535</ele>
        <time>2020-06-18T10:33:27Z</time>
      </trkpt>
      <trkpt lat="46.63825" lon="5.61305">
        <ele>545</ele>
        <time>2020-06-18T10:34:09Z</time>
      </trkpt>
      <trkpt lat="46.63862" lon="5.61304">
        <ele>549</ele>
        <time>2020-06-18T10:34:59Z</time>
      </trkpt>
      <trkpt lat="46.63891" lon="5.61314">
        <ele>549</ele>
        <time>2020-06-18T10:35:39Z</time>
      </trkpt>
      <trkpt lat="46.63947" lon="5.61321">
        <ele>551</ele>
        <time>2020-06-18T10:36:54Z</time>
      </trkpt>
      <trkpt lat="46.6402" lon="5.61345">
        <ele>550</ele>
        <time>2020-06-18T10:38:33Z</time>
      </trkpt>
      <trkpt lat="46.64028" lon="5.61353">
        <ele>550</ele>
        <time>2020-06-18T10:38:46Z</time>
      </trkpt>
      <trkpt lat="46.64083" lon="5.61389">
        <ele>549</ele>
        <time>2020-06-18T10:40:07Z</time>
      </trkpt>
      <trkpt lat="46.64095" lon="5.61403">
        <ele>548</ele>
        <time>2020-06-18T10:40:27Z</time>
      </trkpt>
      <trkpt lat="46.64101" lon="5.61406">
        <ele>548</ele>
        <time>2020-06-18T10:40:36Z</time>
      </trkpt>
      <trkpt lat="46.64117" lon="5.61411">
        <ele>547</ele>
        <time>2020-06-18T10:40:58Z</time>
      </trkpt>
      <trkpt lat="46.64142" lon="5.61424">
        <ele>547</ele>
        <time>2020-06-18T10:41:33Z</time>
      </trkpt>
      <trkpt lat="46.64158" lon="5.61428">
        <ele>547</ele>
        <time>2020-06-18T10:41:55Z</time>
      </trkpt>
      <trkpt lat="46.64174" lon="5.61424">
        <ele>547</ele>
        <time>2020-06-18T10:42:16Z</time>
      </trkpt>
      <trkpt lat="46.64189" lon="5.61424">
        <ele>548</ele>
        <time>2020-06-18T10:42:36Z</time>
      </trkpt>
      <trkpt lat="46.6421" lon="5.61433">
        <ele>548</ele>
        <time>2020-06-18T10:43:06Z</time>
      </trkpt>
      <trkpt lat="46.64285" lon="5.61501">
        <ele>541</ele>
        <time>2020-06-18T10:45:04Z</time>
      </trkpt>
      <trkpt lat="46.64297" lon="5.615">
        <ele>539</ele>
        <time>2020-06-18T10:45:20Z</time>
      </trkpt>
      <trkpt lat="46.64301" lon="5.61506">
        <ele>539</ele>
        <time>2020-06-18T10:45:27Z</time>
      </trkpt>
      <trkpt lat="46.64303" lon="5.61522">
        <ele>539</ele>
        <time>2020-06-18T10:45:42Z</time>
      </trkpt>
      <trkpt lat="46.643" lon="5.61541">
        <ele>541</ele>
        <time>2020-06-18T10:46:00Z</time>
      </trkpt>
      <trkpt lat="46.64284" lon="5.61592">
        <ele>544</ele>
        <time>2020-06-18T10:46:51Z</time>
      </trkpt>
      <trkpt lat="46.64228" lon="5.61722">
        <ele>547</ele>
        <time>2020-06-18T10:49:12Z</time>
      </trkpt>
      <trkpt lat="46.64202" lon="5.61791">
        <ele>540</ele>
        <time>2020-06-18T10:50:24Z</time>
      </trkpt>
      <trkpt lat="46.64184" lon="5.6183">
        <ele>534</ele>
        <time>2020-06-18T10:51:07Z</time>
      </trkpt>
      <trkpt lat="46.64172" lon="5.61846">
        <ele>533</ele>
        <time>2020-06-18T10:51:29Z</time>
      </trkpt>
      <trkpt lat="46.64162" lon="5.61847">
        <ele>531</ele>
        <time>2020-06-18T10:51:42Z</time>
      </trkpt>
      <trkpt lat="46.64162" lon="5.61842">
        <ele>532</ele>
        <time>2020-06-18T10:51:47Z</time>
      </trkpt>
      <trkpt lat="46.64158" lon="5.61847">
        <ele>530</ele>
        <time>2020-06-18T10:51:54Z</time>
      </trkpt>
      <trkpt lat="46.64145" lon="5.61807">
        <ele>529</ele>
        <time>2020-06-18T10:52:34Z</time>
      </trkpt>
      <trkpt lat="46.64104" lon="5.61729">
        <ele>526</ele>
        <time>2020-06-18T10:54:04Z</time>
      </trkpt>
      <trkpt lat="46.64077" lon="5.61657">
        <ele>529</ele>
        <time>2020-06-18T10:55:20Z</time>
      </trkpt>
      <trkpt lat="46.6406" lon="5.61617">
        <ele>528</ele>
        <time>2020-06-18T10:56:03Z</time>
      </trkpt>
      <trkpt lat="46.6405" lon="5.616">
        <ele>528</ele>
        <time>2020-06-18T10:56:23Z</time>
      </trkpt>
      <trkpt lat="46.64016" lon="5.61561">
        <ele>528</ele>
        <time>2020-06-18T10:57:21Z</time>
      </trkpt>
      <trkpt lat="46.64006" lon="5.61558">
        <ele>527</ele>
        <time>2020-06-18T10:57:35Z</time>
      </trkpt>
      <trkpt lat="46.63968" lon="5.61537">
        <ele>522</ele>
        <time>2020-06-18T10:58:29Z</time>
      </trkpt>
      <trkpt lat="46.63952" lon="5.61525">
        <ele>522</ele>
        <time>2020-06-18T10:58:53Z</time>
      </trkpt>
      <trkpt lat="46.6393" lon="5.61526">
        <ele>516</ele>
        <time>2020-06-18T10:59:22Z</time>
      </trkpt>
      <trkpt lat="46.63929" lon="5.61528">
        <ele>515</ele>
        <time>2020-06-18T10:59:24Z</time>
      </trkpt>
      <trkpt lat="46.63881" lon="5.61487">
        <ele>515</ele>
        <time>2020-06-18T11:00:39Z</time>
      </trkpt>
      <trkpt lat="46.63864" lon="5.6147">
        <ele>516</ele>
        <time>2020-06-18T11:01:06Z</time>
      </trkpt>
      <trkpt lat="46.63851" lon="5.61438">
        <ele>523</ele>
        <time>2020-06-18T11:01:40Z</time>
      </trkpt>
      <trkpt lat="46.63822" lon="5.61401">
        <ele>526</ele>
        <time>2020-06-18T11:02:32Z</time>
      </trkpt>
      <trkpt lat="46.63807" lon="5.61371">
        <ele>526</ele>
        <time>2020-06-18T11:03:06Z</time>
      </trkpt>
      <trkpt lat="46.63803" lon="5.61366">
        <ele>525</ele>
        <time>2020-06-18T11:03:13Z</time>
      </trkpt>
      <trkpt lat="46.63795" lon="5.61368">
        <ele>522</ele>
        <time>2020-06-18T11:03:24Z</time>
      </trkpt>
      <trkpt lat="46.6377" lon="5.61332">
        <ele>521</ele>
        <time>2020-06-18T11:04:11Z</time>
      </trkpt>
      <trkpt lat="46.63766" lon="5.61322">
        <ele>521</ele>
        <time>2020-06-18T11:04:21Z</time>
      </trkpt>
      <trkpt lat="46.63717" lon="5.61084">
        <ele>525</ele>
        <time>2020-06-18T11:08:09Z</time>
      </trkpt>
      <trkpt lat="46.63711" lon="5.61115">
        <ele>520</ele>
        <time>2020-06-18T11:08:38Z</time>
      </trkpt>
      <trkpt lat="46.63711" lon="5.61145">
        <ele>517</ele>
        <time>2020-06-18T11:09:06Z</time>
      </trkpt>
      <trkpt lat="46.63709" lon="5.61131">
        <ele>517</ele>
        <time>2020-06-18T11:09:19Z</time>
      </trkpt>
      <trkpt lat="46.63711" lon="5.61101">
        <ele>521</ele>
        <time>2020-06-18T11:09:47Z</time>
      </trkpt>
      <trkpt lat="46.63829" lon="5.60773">
        <ele>499</ele>
        <time>2020-06-18T11:15:26Z</time>
      </trkpt>
      <trkpt lat="46.6383" lon="5.60791">
        <ele>508</ele>
        <time>2020-06-18T11:15:42Z</time>
      </trkpt>
      <trkpt lat="46.6383" lon="5.60783">
        <ele>504</ele>
        <time>2020-06-18T11:15:50Z</time>
      </trkpt>
      <trkpt lat="46.63848" lon="5.60766">
        <ele>500</ele>
        <time>2020-06-18T11:16:18Z</time>
      </trkpt>
      <trkpt lat="46.63859" lon="5.60758">
        <ele>498</ele>
        <time>2020-06-18T11:16:35Z</time>
      </trkpt>
      <trkpt lat="46.63886" lon="5.60747">
        <ele>498</ele>
        <time>2020-06-18T11:17:12Z</time>
      </trkpt>
      <trkpt lat="46.63892" lon="5.60739">
        <ele>496</ele>
        <time>2020-06-18T11:17:23Z</time>
      </trkpt>
      <trkpt lat="46.63894" lon="5.6073">
        <ele>491</ele>
        <time>2020-06-18T11:17:32Z</time>
      </trkpt>
      <trkpt lat="46.63897" lon="5.60728">
        <ele>491</ele>
        <time>2020-06-18T11:17:36Z</time>
      </trkpt>
      <trkpt lat="46.63918" lon="5.60724">
        <ele>493</ele>
        <time>2020-06-18T11:18:04Z</time>
      </trkpt>
      <trkpt lat="46.63992" lon="5.60722">
        <ele>501</ele>
        <time>2020-06-18T11:19:43Z</time>
      </trkpt>
      <trkpt lat="46.64011" lon="5.60724">
        <ele>503</ele>
        <time>2020-06-18T11:20:09Z</time>
      </trkpt>
      <trkpt lat="46.64055" lon="5.60736">
        <ele>509</ele>
        <time>2020-06-18T11:21:08Z</time>
      </trkpt>
      <trkpt lat="46.64109" lon="5.60736">
        <ele>508</ele>
        <time>2020-06-18T11:22:20Z</time>
      </trkpt>
      <trkpt lat="46.64149" lon="5.60744">
        <ele>510</ele>
        <time>2020-06-18T11:23:14Z</time>
      </trkpt>
      <trkpt lat="46.64185" lon="5.60743">
        <ele>508</ele>
        <time>2020-06-18T11:24:02Z</time>
      </trkpt>
      <trkpt lat="46.64273" lon="5.60757">
        <ele>512</ele>
        <time>2020-06-18T11:26:00Z</time>
      </trkpt>
      <trkpt lat="46.64355" lon="5.60759">
        <ele>507</ele>
        <time>2020-06-18T11:27:50Z</time>
      </trkpt>
      <trkpt lat="46.64402" lon="5.60755">
        <ele>501</ele>
        <time>2020-06-18T11:28:53Z</time>
      </trkpt>
      <trkpt lat="46.64443" lon="5.60759">
        <ele>499</ele>
        <time>2020-06-18T11:29:47Z</time>
      </trkpt>
      <trkpt lat="46.64474" lon="5.60765">
        <ele>499</ele>
        <time>2020-06-18T11:30:29Z</time>
      </trkpt>
      <trkpt lat="46.64506" lon="5.60775">
        <ele>501</ele>
        <time>2020-06-18T11:31:13Z</time>
      </trkpt>
      <trkpt lat="46.64532" lon="5.60778">
        <ele>499</ele>
        <time>2020-06-18T11:31:48Z</time>
      </trkpt>
      <trkpt lat="46.64548" lon="5.60783">
        <ele>499</ele>
        <time>2020-06-18T11:32:10Z</time>
      </trkpt>
      <trkpt lat="46.64578" lon="5.60782">
        <ele>495</ele>
        <time>2020-06-18T11:32:50Z</time>
      </trkpt>
      <trkpt lat="46.64592" lon="5.60785">
        <ele>494</ele>
        <time>2020-06-18T11:33:08Z</time>
      </trkpt>
      <trkpt lat="46.6461" lon="5.60784">
        <ele>490</ele>
        <time>2020-06-18T11:33:33Z</time>
      </trkpt>
      <trkpt lat="46.64646" lon="5.60788">
        <ele>484</ele>
        <time>2020-06-18T11:34:21Z</time>
      </trkpt>
      <trkpt lat="46.64698" lon="5.60785">
        <ele>483</ele>
        <time>2020-06-18T11:35:30Z</time>
      </trkpt>
      <trkpt lat="46.64742" lon="5.60773">
        <ele>485</ele>
        <time>2020-06-18T11:36:30Z</time>
      </trkpt>
      <trkpt lat="46.64755" lon="5.60766">
        <ele>485</ele>
        <time>2020-06-18T11:36:48Z</time>
      </trkpt>
      <trkpt lat="46.64761" lon="5.60754">
        <ele>483</ele>
        <time>2020-06-18T11:37:02Z</time>
      </trkpt>
      <trkpt lat="46.64806" lon="5.60733">
        <ele>482.9</ele>
      </trkpt>
      <trkpt lat="46.6484" lon="5.60714">
        <ele>479.6</ele>
        <time>2020-06-18T11:39:09Z</time>
      </trkpt>
      <trkpt lat="46.64855" lon="5.60709">
        <ele>479.2</ele>
        <time>2020-06-18T11:39:51Z</time>
      </trkpt>
      <trkpt lat="46.64859" lon="5.60709">
        <ele>479.9</ele>
        <time>2020-06-18T11:39:56Z</time>
      </trkpt>
      <trkpt lat="46.6488" lon="5.60693">
        <ele>474</ele>
        <time>2020-06-18T11:40:23Z</time>
      </trkpt>
      <trkpt lat="46.64897" lon="5.60685">
        <ele>472</ele>
        <time>2020-06-18T11:40:47Z</time>
      </trkpt>
      <trkpt lat="46.64946" lon="5.60672">
        <ele>472</ele>
        <time>2020-06-18T11:41:53Z</time>
      </trkpt>
      <trkpt lat="46.6495" lon="5.60669">
        <ele>472</ele>
        <time>2020-06-18T11:41:59Z</time>
      </trkpt>
      <trkpt lat="46.6504" lon="5.6064">
        <ele>473</ele>
        <time>2020-06-18T11:44:02Z</time>
      </trkpt>
      <trkpt lat="46.65061" lon="5.60634">
        <ele>473</ele>
        <time>2020-06-18T11:44:31Z</time>
      </trkpt>
      <trkpt lat="46.65096" lon="5.6063">
        <ele>477</ele>
        <time>2020-06-18T11:45:18Z</time>
      </trkpt>
      <trkpt lat="46.65203" lon="5.6064">
        <ele>491.3</ele>
      </trkpt>
      <trkpt lat="46.65235" lon="5.60665">
        <ele>499.7</ele>
      </trkpt>
      <trkpt lat="46.65275" lon="5.60706">
        <ele>487.1</ele>
        <time>2020-06-18T11:51:06Z</time>
      </trkpt>
      <trkpt lat="46.65282" lon="5.60716">
        <ele>484.1</ele>
        <time>2020-06-18T11:51:23Z</time>
      </trkpt>
      <trkpt lat="46.65294" lon="5.60725">
        <ele>476.9</ele>
      </trkpt>
      <trkpt lat="46.65308" lon="5.60748">
        <ele>471.4</ele>
        <time>2020-06-18T11:51:37Z</time>
      </trkpt>
      <trkpt lat="46.65318" lon="5.60762">
        <ele>466.7</ele>
        <time>2020-06-18T11:51:54Z</time>
      </trkpt>
      <trkpt lat="46.65331" lon="5.6078">
        <ele>460.7</ele>
        <time>2020-06-18T11:52:09Z</time>
      </trkpt>
      <trkpt lat="46.65337" lon="5.60784">
        <ele>458.4</ele>
        <time>2020-06-18T11:52:31Z</time>
      </trkpt>
      <trkpt lat="46.65351" lon="5.60824">
        <ele>457.1</ele>
      </trkpt>
      <trkpt lat="46.65362" lon="5.60852">
        <ele>457</ele>
        <time>2020-06-18T11:53:56Z</time>
      </trkpt>
      <trkpt lat="46.65361" lon="5.6086">
        <ele>459</ele>
        <time>2020-06-18T11:54:04Z</time>
      </trkpt>
      <trkpt lat="46.65386" lon="5.60957">
        <ele>464</ele>
        <time>2020-06-18T11:55:39Z</time>
      </trkpt>
      <trkpt lat="46.65389" lon="5.60976">
        <ele>466</ele>
        <time>2020-06-18T11:55:57Z</time>
      </trkpt>
      <trkpt lat="46.65407" lon="5.61024">
        <ele>463</ele>
        <time>2020-06-18T11:56:47Z</time>
      </trkpt>
      <trkpt lat="46.65421" lon="5.61076">
        <ele>461</ele>
        <time>2020-06-18T11:57:38Z</time>
      </trkpt>
      <trkpt lat="46.65427" lon="5.6112">
        <ele>462</ele>
        <time>2020-06-18T11:58:19Z</time>
      </trkpt>
      <trkpt lat="46.65433" lon="5.61131">
        <ele>460</ele>
        <time>2020-06-18T11:58:32Z</time>
      </trkpt>
      <trkpt lat="46.65447" lon="5.61176">
        <ele>457</ele>
        <time>2020-06-18T11:59:17Z</time>
      </trkpt>
      <trkpt lat="46.65465" lon="5.61214">
        <ele>454</ele>
        <time>2020-06-18T11:59:59Z</time>
      </trkpt>
      <trkpt lat="46.65465" lon="5.6122">
        <ele>455</ele>
        <time>2020-06-18T12:00:05Z</time>
      </trkpt>
      <trkpt lat="46.65474" lon="5.61228">
        <ele>452</ele>
        <time>2020-06-18T12:00:19Z</time>
      </trkpt>
      <trkpt lat="46.65479" lon="5.61241">
        <ele>451</ele>
        <time>2020-06-18T12:00:33Z</time>
      </trkpt>
      <trkpt lat="46.65478" lon="5.6126">
        <ele>456</ele>
        <time>2020-06-18T12:00:50Z</time>
      </trkpt>
      <trkpt lat="46.65518" lon="5.6132">
        <ele>464</ele>
        <time>2020-06-18T12:02:07Z</time>
      </trkpt>
      <trkpt lat="46.65532" lon="5.61334">
        <ele>472</ele>
        <time>2020-06-18T12:02:29Z</time>
      </trkpt>
      <trkpt lat="46.65597" lon="5.61386">
        <ele>505</ele>
      </trkpt>
      <trkpt lat="46.65685" lon="5.6143">
        <ele>529.9</ele>
      </trkpt>
      <trkpt lat="46.65891" lon="5.61447">
        <ele>523.8</ele>
      </trkpt>
      <trkpt lat="46.66119" lon="5.61397">
        <ele>531.1</ele>
      </trkpt>
      <trkpt lat="46.66215" lon="5.61337">
        <ele>512.4</ele>
      </trkpt>
      <trkpt lat="46.66295" lon="5.61229">
        <ele>450</ele>
        <time>2020-06-18T12:19:32Z</time>
      </trkpt>
      <trkpt lat="46.66286" lon="5.61232">
        <ele>451</ele>
        <time>2020-06-18T12:19:44Z</time>
      </trkpt>
      <trkpt lat="46.66278" lon="5.61241">
        <ele>454</ele>
        <time>2020-06-18T12:19:58Z</time>
      </trkpt>
      <trkpt lat="46.6628" lon="5.61239">
        <ele>453</ele>
        <time>2020-06-18T12:20:01Z</time>
      </trkpt>
      <trkpt lat="46.66281" lon="5.61244">
        <ele>455</ele>
        <time>2020-06-18T12:20:06Z</time>
      </trkpt>
      <trkpt lat="46.66275" lon="5.61239">
        <ele>453</ele>
        <time>2020-06-18T12:20:15Z</time>
      </trkpt>
      <trkpt lat="46.66291" lon="5.61242">
        <ele>454</ele>
        <time>2020-06-18T12:20:37Z</time>
      </trkpt>
      <trkpt lat="46.66288" lon="5.61243">
        <ele>454</ele>
        <time>2020-06-18T12:20:41Z</time>
      </trkpt>
      <trkpt lat="46.66288" lon="5.61233">
        <ele>451</ele>
        <time>2020-06-18T12:20:50Z</time>
      </trkpt>
      <trkpt lat="46.66297" lon="5.6122">
        <ele>447</ele>
        <time>2020-06-18T12:21:07Z</time>
      </trkpt>
      <trkpt lat="46.66303" lon="5.61201">
        <ele>441</ele>
        <time>2020-06-18T12:21:26Z</time>
      </trkpt>
      <trkpt lat="46.66321" lon="5.61113">
        <ele>425</ele>
        <time>2020-06-18T12:22:50Z</time>
      </trkpt>
      <trkpt lat="46.66328" lon="5.61042">
        <ele>423</ele>
        <time>2020-06-18T12:23:56Z</time>
      </trkpt>
      <trkpt lat="46.66327" lon="5.60986">
        <ele>423</ele>
        <time>2020-06-18T12:24:47Z</time>
      </trkpt>
      <trkpt lat="46.66316" lon="5.6091">
        <ele>426</ele>
        <time>2020-06-18T12:25:58Z</time>
      </trkpt>
      <trkpt lat="46.66312" lon="5.60891">
        <ele>428</ele>
        <time>2020-06-18T12:26:16Z</time>
      </trkpt>
      <trkpt lat="46.66288" lon="5.6082">
        <ele>430</ele>
        <time>2020-06-18T12:27:29Z</time>
      </trkpt>
      <trkpt lat="46.66243" lon="5.60729">
        <ele>433</ele>
        <time>2020-06-18T12:29:12Z</time>
      </trkpt>
      <trkpt lat="46.66211" lon="5.60695">
        <ele>435</ele>
        <time>2020-06-18T12:30:04Z</time>
      </trkpt>
      <trkpt lat="46.6611" lon="5.60623">
        <ele>431</ele>
        <time>2020-06-18T12:32:35Z</time>
      </trkpt>
      <trkpt lat="46.66103" lon="5.60623">
        <ele>429</ele>
        <time>2020-06-18T12:32:44Z</time>
      </trkpt>
      <trkpt lat="46.661" lon="5.60613">
        <ele>431</ele>
        <time>2020-06-18T12:32:54Z</time>
      </trkpt>
      <trkpt lat="46.66102" lon="5.6061">
        <ele>433</ele>
        <time>2020-06-18T12:32:58Z</time>
      </trkpt>
      <trkpt lat="46.66097" lon="5.60604">
        <ele>433</ele>
        <time>2020-06-18T12:33:06Z</time>
      </trkpt>
      <trkpt lat="46.66083" lon="5.60607">
        <ele>427</ele>
        <time>2020-06-18T12:33:25Z</time>
      </trkpt>
      <trkpt lat="46.66041" lon="5.60588">
        <ele>419</ele>
        <time>2020-06-18T12:34:24Z</time>
      </trkpt>
      <trkpt lat="46.65947" lon="5.60524">
        <ele>412</ele>
        <time>2020-06-18T12:36:42Z</time>
      </trkpt>
      <trkpt lat="46.65918" lon="5.60495">
        <ele>413</ele>
        <time>2020-06-18T12:37:29Z</time>
      </trkpt>
      <trkpt lat="46.65898" lon="5.60471">
        <ele>412</ele>
        <time>2020-06-18T12:38:04Z</time>
      </trkpt>
      <trkpt lat="46.65893" lon="5.6046">
        <ele>414</ele>
        <time>2020-06-18T12:38:16Z</time>
      </trkpt>
      <trkpt lat="46.65872" lon="5.60437">
        <ele>412</ele>
        <time>2020-06-18T12:38:51Z</time>
      </trkpt>
      <trkpt lat="46.65858" lon="5.60432">
        <ele>409</ele>
        <time>2020-06-18T12:39:10Z</time>
      </trkpt>
      <trkpt lat="46.65856" lon="5.60435">
        <ele>408</ele>
        <time>2020-06-18T12:39:14Z</time>
      </trkpt>
      <trkpt lat="46.65849" lon="5.60429">
        <ele>407</ele>
        <time>2020-06-18T12:39:25Z</time>
      </trkpt>
      <trkpt lat="46.65828" lon="5.6039">
        <ele>404</ele>
        <time>2020-06-18T12:40:10Z</time>
      </trkpt>
      <trkpt lat="46.65821" lon="5.60364">
        <ele>403</ele>
        <time>2020-06-18T12:40:36Z</time>
      </trkpt>
      <trkpt lat="46.65815" lon="5.60323">
        <ele>403</ele>
        <time>2020-06-18T12:41:14Z</time>
      </trkpt>
      <trkpt lat="46.65819" lon="5.60306">
        <ele>405</ele>
        <time>2020-06-18T12:41:31Z</time>
      </trkpt>
      <trkpt lat="46.65825" lon="5.60303">
        <ele>407</ele>
        <time>2020-06-18T12:41:39Z</time>
      </trkpt>
      <trkpt lat="46.6584" lon="5.60319">
        <ele>412</ele>
        <time>2020-06-18T12:42:04Z</time>
      </trkpt>
      <trkpt lat="46.65843" lon="5.60314">
        <ele>414</ele>
        <time>2020-06-18T12:42:10Z</time>
      </trkpt>
      <trkpt lat="46.65848" lon="5.60296">
        <ele>416</ele>
        <time>2020-06-18T12:42:28Z</time>
      </trkpt>
      <trkpt lat="46.65851" lon="5.6025">
        <ele>420</ele>
        <time>2020-06-18T12:43:10Z</time>
      </trkpt>
      <trkpt lat="46.65855" lon="5.60233">
        <ele>421</ele>
        <time>2020-06-18T12:43:27Z</time>
      </trkpt>
      <trkpt lat="46.65863" lon="5.60217">
        <ele>423</ele>
        <time>2020-06-18T12:43:45Z</time>
      </trkpt>
      <trkpt lat="46.65885" lon="5.60195">
        <ele>432</ele>
        <time>2020-06-18T12:44:20Z</time>
      </trkpt>
      <trkpt lat="46.65902" lon="5.6017">
        <ele>438</ele>
        <time>2020-06-18T12:44:53Z</time>
      </trkpt>
      <trkpt lat="46.6592" lon="5.60156">
        <ele>444</ele>
        <time>2020-06-18T12:45:20Z</time>
      </trkpt>
      <trkpt lat="46.65935" lon="5.60157">
        <ele>451</ele>
        <time>2020-06-18T12:45:40Z</time>
      </trkpt>
      <trkpt lat="46.65942" lon="5.60187">
        <ele>459</ele>
        <time>2020-06-18T12:46:09Z</time>
      </trkpt>
      <trkpt lat="46.65955" lon="5.60161">
        <ele>462</ele>
        <time>2020-06-18T12:46:38Z</time>
      </trkpt>
      <trkpt lat="46.65971" lon="5.60147">
        <ele>467</ele>
        <time>2020-06-18T12:47:03Z</time>
      </trkpt>
      <trkpt lat="46.65981" lon="5.60143">
        <ele>470</ele>
        <time>2020-06-18T12:47:17Z</time>
      </trkpt>
      <trkpt lat="46.65998" lon="5.6013">
        <ele>474</ele>
        <time>2020-06-18T12:47:43Z</time>
      </trkpt>
      <trkpt lat="46.66009" lon="5.60127">
        <ele>478</ele>
        <time>2020-06-18T12:47:58Z</time>
      </trkpt>
      <trkpt lat="46.66015" lon="5.60122">
        <ele>478</ele>
        <time>2020-06-18T12:48:07Z</time>
      </trkpt>
      <trkpt lat="46.66013" lon="5.60114">
        <ele>475</ele>
        <time>2020-06-18T12:48:15Z</time>
      </trkpt>
      <trkpt lat="46.66009" lon="5.60124">
        <ele>477</ele>
        <time>2020-06-18T12:48:25Z</time>
      </trkpt>
      <trkpt lat="46.6598" lon="5.60171">
        <ele>477</ele>
        <time>2020-06-18T12:49:23Z</time>
      </trkpt>
      <trkpt lat="46.6598" lon="5.60188">
        <ele>479</ele>
        <time>2020-06-18T12:49:39Z</time>
      </trkpt>
      <trkpt lat="46.65985" lon="5.60197">
        <ele>483</ele>
        <time>2020-06-18T12:49:49Z</time>
      </trkpt>
      <trkpt lat="46.65992" lon="5.60225">
        <ele>491</ele>
        <time>2020-06-18T12:50:17Z</time>
      </trkpt>
      <trkpt lat="46.65993" lon="5.60219">
        <ele>491</ele>
        <time>2020-06-18T12:50:22Z</time>
      </trkpt>
      <trkpt lat="46.66001" lon="5.60222">
        <ele>496</ele>
        <time>2020-06-18T12:50:33Z</time>
      </trkpt>
      <trkpt lat="46.65996" lon="5.60223">
        <ele>493</ele>
        <time>2020-06-18T12:50:40Z</time>
      </trkpt>
      <trkpt lat="46.65989" lon="5.60213">
        <ele>488</ele>
        <time>2020-06-18T12:50:53Z</time>
      </trkpt>
      <trkpt lat="46.65994" lon="5.60188">
        <ele>487</ele>
        <time>2020-06-18T12:51:17Z</time>
      </trkpt>
      <trkpt lat="46.65988" lon="5.60183">
        <ele>483</ele>
        <time>2020-06-18T12:51:26Z</time>
      </trkpt>
      <trkpt lat="46.6599" lon="5.60187">
        <ele>485</ele>
        <time>2020-06-18T12:51:31Z</time>
      </trkpt>
      <trkpt lat="46.66" lon="5.60178">
        <ele>489</ele>
        <time>2020-06-18T12:51:46Z</time>
      </trkpt>
      <trkpt lat="46.65999" lon="5.60174">
        <ele>488</ele>
        <time>2020-06-18T12:51:50Z</time>
      </trkpt>
      <trkpt lat="46.65995" lon="5.60174">
        <ele>486</ele>
        <time>2020-06-18T12:51:56Z</time>
      </trkpt>
      <trkpt lat="46.65989" lon="5.60186">
        <ele>484</ele>
        <time>2020-06-18T12:52:09Z</time>
      </trkpt>
      <trkpt lat="46.66001" lon="5.60183">
        <ele>490</ele>
        <time>2020-06-18T12:52:26Z</time>
      </trkpt>
      <trkpt lat="46.65995" lon="5.60185">
        <ele>487</ele>
        <time>2020-06-18T12:52:34Z</time>
      </trkpt>
      <trkpt lat="46.66" lon="5.60184">
        <ele>490</ele>
        <time>2020-06-18T12:52:40Z</time>
      </trkpt>
      <trkpt lat="46.65991" lon="5.60182">
        <ele>485</ele>
        <time>2020-06-18T12:52:53Z</time>
      </trkpt>
      <trkpt lat="46.65998" lon="5.60184">
        <ele>489</ele>
        <time>2020-06-18T12:53:02Z</time>
      </trkpt>
      <trkpt lat="46.65996" lon="5.60182">
        <ele>487</ele>
        <time>2020-06-18T12:53:05Z</time>
      </trkpt>
      <trkpt lat="46.65993" lon="5.60185">
        <ele>486</ele>
        <time>2020-06-18T12:53:10Z</time>
      </trkpt>
      <trkpt lat="46.65999" lon="5.60184">
        <ele>489</ele>
        <time>2020-06-18T12:53:18Z</time>
      </trkpt>
      <trkpt lat="46.65997" lon="5.60185">
        <ele>488</ele>
        <time>2020-06-18T12:53:21Z</time>
      </trkpt>
      <trkpt lat="46.65995" lon="5.60184">
        <ele>487</ele>
        <time>2020-06-18T12:53:24Z</time>
      </trkpt>
      <trkpt lat="46.65997" lon="5.60181">
        <ele>488</ele>
        <time>2020-06-18T12:53:28Z</time>
      </trkpt>
      <trkpt lat="46.66001" lon="5.60186">
        <ele>490</ele>
        <time>2020-06-18T12:53:35Z</time>
      </trkpt>
      <trkpt lat="46.65998" lon="5.60183">
        <ele>488</ele>
        <time>2020-06-18T12:53:40Z</time>
      </trkpt>
      <trkpt lat="46.65993" lon="5.60184">
        <ele>486</ele>
        <time>2020-06-18T12:53:46Z</time>
      </trkpt>
      <trkpt lat="46.66" lon="5.60184">
        <ele>490</ele>
        <time>2020-06-18T12:53:56Z</time>
      </trkpt>
      <trkpt lat="46.65997" lon="5.60184">
        <ele>488</ele>
        <time>2020-06-18T12:54:00Z</time>
      </trkpt>
      <trkpt lat="46.65996" lon="5.60181">
        <ele>487</ele>
        <time>2020-06-18T12:54:03Z</time>
      </trkpt>
      <trkpt lat="46.65997" lon="5.60183">
        <ele>488</ele>
        <time>2020-06-18T12:54:05Z</time>
      </trkpt>
      <trkpt lat="46.65992" lon="5.60184">
        <ele>485</ele>
        <time>2020-06-18T12:54:12Z</time>
      </trkpt>
      <trkpt lat="46.65999" lon="5.60182">
        <ele>489</ele>
        <time>2020-06-18T12:54:21Z</time>
      </trkpt>
      <trkpt lat="46.65996" lon="5.60182">
        <ele>487</ele>
        <time>2020-06-18T12:54:25Z</time>
      </trkpt>
      <trkpt lat="46.65999" lon="5.60185">
        <ele>489</ele>
        <time>2020-06-18T12:54:30Z</time>
      </trkpt>
      <trkpt lat="46.65994" lon="5.60182">
        <ele>486</ele>
        <time>2020-06-18T12:54:37Z</time>
      </trkpt>
      <trkpt lat="46.65992" lon="5.60186">
        <ele>486</ele>
        <time>2020-06-18T12:54:42Z</time>
      </trkpt>
      <trkpt lat="46.65997" lon="5.60191">
        <ele>489</ele>
        <time>2020-06-18T12:54:50Z</time>
      </trkpt>
      <trkpt lat="46.66002" lon="5.60184">
        <ele>490</ele>
        <time>2020-06-18T12:54:59Z</time>
      </trkpt>
      <trkpt lat="46.66001" lon="5.6019">
        <ele>491</ele>
        <time>2020-06-18T12:55:05Z</time>
      </trkpt>
      <trkpt lat="46.65994" lon="5.60189">
        <ele>487</ele>
        <time>2020-06-18T12:55:14Z</time>
      </trkpt>
      <trkpt lat="46.65994" lon="5.60194">
        <ele>488</ele>
        <time>2020-06-18T12:55:19Z</time>
      </trkpt>
      <trkpt lat="46.65991" lon="5.60185">
        <ele>485</ele>
        <time>2020-06-18T12:55:28Z</time>
      </trkpt>
      <trkpt lat="46.66007" lon="5.6017">
        <ele>490</ele>
        <time>2020-06-18T12:55:53Z</time>
      </trkpt>
      <trkpt lat="46.6601" lon="5.60164">
        <ele>490</ele>
        <time>2020-06-18T12:56:00Z</time>
      </trkpt>
      <trkpt lat="46.66029" lon="5.60147">
        <ele>492</ele>
        <time>2020-06-18T12:56:30Z</time>
      </trkpt>
      <trkpt lat="46.66032" lon="5.60153">
        <ele>495</ele>
        <time>2020-06-18T12:56:37Z</time>
      </trkpt>
      <trkpt lat="46.66044" lon="5.60145">
        <ele>497</ele>
        <time>2020-06-18T12:56:54Z</time>
      </trkpt>
      <trkpt lat="46.66058" lon="5.60131">
        <ele>497</ele>
        <time>2020-06-18T12:57:17Z</time>
      </trkpt>
      <trkpt lat="46.6607" lon="5.60132">
        <ele>502</ele>
        <time>2020-06-18T12:57:33Z</time>
      </trkpt>
      <trkpt lat="46.66052" lon="5.6014">
        <ele>498</ele>
        <time>2020-06-18T12:57:58Z</time>
      </trkpt>
      <trkpt lat="46.66033" lon="5.60165">
        <ele>499</ele>
        <time>2020-06-18T12:58:32Z</time>
      </trkpt>
      <trkpt lat="46.66031" lon="5.60175">
        <ele>500</ele>
        <time>2020-06-18T12:58:42Z</time>
      </trkpt>
      <trkpt lat="46.66029" lon="5.60173">
        <ele>499</ele>
        <time>2020-06-18T12:58:45Z</time>
      </trkpt>
      <trkpt lat="46.66033" lon="5.60169">
        <ele>500</ele>
        <time>2020-06-18T12:58:52Z</time>
      </trkpt>
      <trkpt lat="46.66046" lon="5.60163">
        <ele>503</ele>
        <time>2020-06-18T12:59:10Z</time>
      </trkpt>
      <trkpt lat="46.66071" lon="5.60146">
        <ele>507</ele>
        <time>2020-06-18T12:59:47Z</time>
      </trkpt>
      <trkpt lat="46.66078" lon="5.60137">
        <ele>507</ele>
        <time>2020-06-18T12:59:59Z</time>
      </trkpt>
      <trkpt lat="46.66125" lon="5.60132">
        <ele>513</ele>
        <time>2020-06-18T13:01:02Z</time>
      </trkpt>
      <trkpt lat="46.66168" lon="5.60139">
        <ele>521</ele>
        <time>2020-06-18T13:02:00Z</time>
      </trkpt>
      <trkpt lat="46.66175" lon="5.60143">
        <ele>523</ele>
        <time>2020-06-18T13:02:10Z</time>
      </trkpt>
      <trkpt lat="46.66175" lon="5.60154">
        <ele>527</ele>
        <time>2020-06-18T13:02:20Z</time>
      </trkpt>
      <trkpt lat="46.6618" lon="5.60176">
        <ele>532</ele>
        <time>2020-06-18T13:02:41Z</time>
      </trkpt>
      <trkpt lat="46.66186" lon="5.60187">
        <ele>534</ele>
        <time>2020-06-18T13:02:54Z</time>
      </trkpt>
      <trkpt lat="46.6622" lon="5.60218">
        <ele>541</ele>
        <time>2020-06-18T13:03:47Z</time>
      </trkpt>
      <trkpt lat="46.66236" lon="5.60241">
        <ele>546</ele>
        <time>2020-06-18T13:04:17Z</time>
      </trkpt>
      <trkpt lat="46.66263" lon="5.60253">
        <ele>549</ele>
        <time>2020-06-18T13:04:55Z</time>
      </trkpt>
      <trkpt lat="46.66262" lon="5.60247">
        <ele>549</ele>
        <time>2020-06-18T13:05:01Z</time>
      </trkpt>
      <trkpt lat="46.66263" lon="5.6025">
        <ele>549</ele>
        <time>2020-06-18T13:05:04Z</time>
      </trkpt>
      <trkpt lat="46.66255" lon="5.60249">
        <ele>550</ele>
        <time>2020-06-18T13:05:15Z</time>
      </trkpt>
      <trkpt lat="46.66259" lon="5.60254">
        <ele>549</ele>
        <time>2020-06-18T13:05:22Z</time>
      </trkpt>
      <trkpt lat="46.66262" lon="5.60254">
        <ele>549</ele>
        <time>2020-06-18T13:05:26Z</time>
      </trkpt>
      <trkpt lat="46.6626" lon="5.60251">
        <ele>549</ele>
        <time>2020-06-18T13:05:29Z</time>
      </trkpt>
      <trkpt lat="46.66262" lon="5.6026">
        <ele>549</ele>
        <time>2020-06-18T13:05:38Z</time>
      </trkpt>
      <trkpt lat="46.66292" lon="5.60316">
        <ele>548</ele>
        <time>2020-06-18T13:06:43Z</time>
      </trkpt>
      <trkpt lat="46.66312" lon="5.6034">
        <ele>548</ele>
        <time>2020-06-18T13:07:18Z</time>
      </trkpt>
      <trkpt lat="46.66338" lon="5.60379">
        <ele>548</ele>
        <time>2020-06-18T13:08:07Z</time>
      </trkpt>
      <trkpt lat="46.66397" lon="5.60501">
        <ele>551</ele>
        <time>2020-06-18T13:10:24Z</time>
      </trkpt>
      <trkpt lat="46.66456" lon="5.60589">
        <ele>559</ele>
        <time>2020-06-18T13:12:17Z</time>
      </trkpt>
      <trkpt lat="46.66465" lon="5.60588">
        <ele>560</ele>
        <time>2020-06-18T13:12:29Z</time>
      </trkpt>
      <trkpt lat="46.66481" lon="5.6054">
        <ele>561</ele>
        <time>2020-06-18T13:13:18Z</time>
      </trkpt>
      <trkpt lat="46.66488" lon="5.60503">
        <ele>560</ele>
        <time>2020-06-18T13:13:53Z</time>
      </trkpt>
      <trkpt lat="46.66467" lon="5.60294">
        <ele>554</ele>
        <time>2020-06-18T13:17:06Z</time>
      </trkpt>
      <trkpt lat="46.66461" lon="5.60266">
        <ele>553</ele>
        <time>2020-06-18T13:17:33Z</time>
      </trkpt>
      <trkpt lat="46.66456" lon="5.60263">
        <ele>553</ele>
        <time>2020-06-18T13:17:40Z</time>
      </trkpt>
      <trkpt lat="46.66451" lon="5.60264">
        <ele>553</ele>
        <time>2020-06-18T13:17:47Z</time>
      </trkpt>
      <trkpt lat="46.66447" lon="5.6026">
        <ele>552</ele>
        <time>2020-06-18T13:17:54Z</time>
      </trkpt>
      <trkpt lat="46.66447" lon="5.60251">
        <ele>552</ele>
        <time>2020-06-18T13:18:02Z</time>
      </trkpt>
      <trkpt lat="46.66452" lon="5.60231">
        <ele>552</ele>
        <time>2020-06-18T13:18:21Z</time>
      </trkpt>
      <trkpt lat="46.6645" lon="5.60235">
        <ele>552</ele>
        <time>2020-06-18T13:18:26Z</time>
      </trkpt>
      <trkpt lat="46.66436" lon="5.60237">
        <ele>551</ele>
        <time>2020-06-18T13:18:45Z</time>
      </trkpt>
      <trkpt lat="46.66439" lon="5.60234">
        <ele>551</ele>
        <time>2020-06-18T13:18:50Z</time>
      </trkpt>
      <trkpt lat="46.66438" lon="5.60228">
        <ele>551</ele>
        <time>2020-06-18T13:18:55Z</time>
      </trkpt>
      <trkpt lat="46.66444" lon="5.60222">
        <ele>551</ele>
        <time>2020-06-18T13:19:05Z</time>
      </trkpt>
      <trkpt lat="46.66464" lon="5.60219">
        <ele>552</ele>
        <time>2020-06-18T13:19:32Z</time>
      </trkpt>
      <trkpt lat="46.66468" lon="5.60217">
        <ele>552</ele>
        <time>2020-06-18T13:19:37Z</time>
      </trkpt>
      <trkpt lat="46.66469" lon="5.60213">
        <ele>552</ele>
        <time>2020-06-18T13:19:41Z</time>
      </trkpt>
      <trkpt lat="46.66477" lon="5.60224">
        <ele>553</ele>
        <time>2020-06-18T13:19:56Z</time>
      </trkpt>
      <trkpt lat="46.66492" lon="5.60255">
        <ele>555</ele>
        <time>2020-06-18T13:20:31Z</time>
      </trkpt>
      <trkpt lat="46.6649" lon="5.60263">
        <ele>555</ele>
        <time>2020-06-18T13:20:38Z</time>
      </trkpt>
      <trkpt lat="46.66481" lon="5.60265">
        <ele>554</ele>
        <time>2020-06-18T13:20:51Z</time>
      </trkpt>
      <trkpt lat="46.66477" lon="5.6026">
        <ele>554</ele>
        <time>2020-06-18T13:20:58Z</time>
      </trkpt>
      <trkpt lat="46.66473" lon="5.60267">
        <ele>554</ele>
        <time>2020-06-18T13:21:06Z</time>
      </trkpt>
      <trkpt lat="46.66468" lon="5.60267">
        <ele>554</ele>
        <time>2020-06-18T13:21:13Z</time>
      </trkpt>
      <trkpt lat="46.66469" lon="5.6026">
        <ele>554</ele>
        <time>2020-06-18T13:21:19Z</time>
      </trkpt>
      <trkpt lat="46.66464" lon="5.6028">
        <ele>553</ele>
        <time>2020-06-18T13:21:39Z</time>
      </trkpt>
      <trkpt lat="46.66468" lon="5.60284">
        <ele>554</ele>
        <time>2020-06-18T13:21:45Z</time>
      </trkpt>
      <trkpt lat="46.66485" lon="5.60432">
        <ele>558</ele>
        <time>2020-06-18T13:24:03Z</time>
      </trkpt>
      <trkpt lat="46.66488" lon="5.60496">
        <ele>560</ele>
        <time>2020-06-18T13:25:01Z</time>
      </trkpt>
      <trkpt lat="46.66494" lon="5.60482">
        <ele>561</ele>
        <time>2020-06-18T13:25:16Z</time>
      </trkpt>
      <trkpt lat="46.66511" lon="5.60411">
        <ele>559</ele>
        <time>2020-06-18T13:26:25Z</time>
      </trkpt>
      <trkpt lat="46.66541" lon="5.60347">
        <ele>560</ele>
        <time>2020-06-18T13:27:36Z</time>
      </trkpt>
      <trkpt lat="46.66555" lon="5.60293">
        <ele>559</ele>
        <time>2020-06-18T13:28:29Z</time>
      </trkpt>
      <trkpt lat="46.66557" lon="5.60261">
        <ele>558</ele>
        <time>2020-06-18T13:28:59Z</time>
      </trkpt>
      <trkpt lat="46.66564" lon="5.60233">
        <ele>558</ele>
        <time>2020-06-18T13:29:26Z</time>
      </trkpt>
      <trkpt lat="46.6658" lon="5.60205">
        <ele>560</ele>
        <time>2020-06-18T13:29:59Z</time>
      </trkpt>
      <trkpt lat="46.6659" lon="5.60195">
        <ele>560</ele>
        <time>2020-06-18T13:30:15Z</time>
      </trkpt>
      <trkpt lat="46.66641" lon="5.60164">
        <ele>561</ele>
        <time>2020-06-18T13:31:29Z</time>
      </trkpt>
      <trkpt lat="46.66667" lon="5.60145">
        <ele>561</ele>
        <time>2020-06-18T13:32:08Z</time>
      </trkpt>
      <trkpt lat="46.66685" lon="5.60137">
        <ele>561</ele>
        <time>2020-06-18T13:32:33Z</time>
      </trkpt>
      <trkpt lat="46.66705" lon="5.60114">
        <ele>562</ele>
        <time>2020-06-18T13:33:07Z</time>
      </trkpt>
      <trkpt lat="46.66719" lon="5.60104">
        <ele>562</ele>
        <time>2020-06-18T13:33:28Z</time>
      </trkpt>
      <trkpt lat="46.66746" lon="5.60091">
        <ele>564</ele>
        <time>2020-06-18T13:34:06Z</time>
      </trkpt>
      <trkpt lat="46.66762" lon="5.60079">
        <ele>564</ele>
        <time>2020-06-18T13:34:30Z</time>
      </trkpt>
      <trkpt lat="46.66795" lon="5.60047">
        <ele>561</ele>
        <time>2020-06-18T13:35:23Z</time>
      </trkpt>
      <trkpt lat="46.6683" lon="5.60023">
        <ele>560</ele>
        <time>2020-06-18T13:36:14Z</time>
      </trkpt>
      <trkpt lat="46.66869" lon="5.59983">
        <ele>556</ele>
        <time>2020-06-18T13:37:18Z</time>
      </trkpt>
      <trkpt lat="46.66881" lon="5.5997">
        <ele>555</ele>
        <time>2020-06-18T13:37:38Z</time>
      </trkpt>
      <trkpt lat="46.66888" lon="5.59956">
        <ele>553</ele>
        <time>2020-06-18T13:37:54Z</time>
      </trkpt>
      <trkpt lat="46.66917" lon="5.59862">
        <ele>547</ele>
        <time>2020-06-18T13:39:28Z</time>
      </trkpt>
      <trkpt lat="46.66925" lon="5.59844">
        <ele>546</ele>
        <time>2020-06-18T13:39:48Z</time>
      </trkpt>
      <trkpt lat="46.6695" lon="5.5982">
        <ele>544</ele>
        <time>2020-06-18T13:40:28Z</time>
      </trkpt>
      <trkpt lat="46.66995" lon="5.59763">
        <ele>541</ele>
        <time>2020-06-18T13:41:47Z</time>
      </trkpt>
      <trkpt lat="46.67033" lon="5.59725">
        <ele>539</ele>
        <time>2020-06-18T13:42:49Z</time>
      </trkpt>
      <trkpt lat="46.67081" lon="5.59708">
        <ele>537</ele>
        <time>2020-06-18T13:43:55Z</time>
      </trkpt>
      <trkpt lat="46.67092" lon="5.59699">
        <ele>536</ele>
        <time>2020-06-18T13:44:12Z</time>
      </trkpt>
      <trkpt lat="46.67123" lon="5.59663">
        <ele>532</ele>
        <time>2020-06-18T13:45:05Z</time>
      </trkpt>
      <trkpt lat="46.67146" lon="5.5963">
        <ele>528</ele>
        <time>2020-06-18T13:45:48Z</time>
      </trkpt>
      <trkpt lat="46.67158" lon="5.59621">
        <ele>526</ele>
        <time>2020-06-18T13:46:06Z</time>
      </trkpt>
      <trkpt lat="46.67213" lon="5.596">
        <ele>524</ele>
        <time>2020-06-18T13:47:21Z</time>
      </trkpt>
      <trkpt lat="46.67254" lon="5.59598">
        <ele>524</ele>
        <time>2020-06-18T13:48:16Z</time>
      </trkpt>
      <trkpt lat="46.67266" lon="5.59589">
        <ele>523</ele>
        <time>2020-06-18T13:48:34Z</time>
      </trkpt>
      <trkpt lat="46.67273" lon="5.5958">
        <ele>522</ele>
        <time>2020-06-18T13:48:47Z</time>
      </trkpt>
      <trkpt lat="46.67294" lon="5.59567">
        <ele>521</ele>
        <time>2020-06-18T13:49:17Z</time>
      </trkpt>
      <trkpt lat="46.67302" lon="5.59565">
        <ele>521</ele>
        <time>2020-06-18T13:49:28Z</time>
      </trkpt>
      <trkpt lat="46.67318" lon="5.59566">
        <ele>521</ele>
        <time>2020-06-18T13:49:49Z</time>
      </trkpt>
      <trkpt lat="46.67358" lon="5.59548">
        <ele>519</ele>
        <time>2020-06-18T13:50:45Z</time>
      </trkpt>
      <trkpt lat="46.67374" lon="5.59547">
        <ele>518</ele>
        <time>2020-06-18T13:51:07Z</time>
      </trkpt>
      <trkpt lat="46.674" lon="5.5954">
        <ele>517</ele>
        <time>2020-06-18T13:51:42Z</time>
      </trkpt>
      <trkpt lat="46.67436" lon="5.59504">
        <ele>515</ele>
        <time>2020-06-18T13:52:40Z</time>
      </trkpt>
      <trkpt lat="46.67451" lon="5.59506">
        <ele>515</ele>
        <time>2020-06-18T13:53:00Z</time>
      </trkpt>
      <trkpt lat="46.67447" lon="5.59502">
        <ele>515</ele>
        <time>2020-06-18T13:53:07Z</time>
      </trkpt>
      <trkpt lat="46.67453" lon="5.59508">
        <ele>515</ele>
        <time>2020-06-18T13:53:16Z</time>
      </trkpt>
      <trkpt lat="46.67456" lon="5.59505">
        <ele>515</ele>
        <time>2020-06-18T13:53:21Z</time>
      </trkpt>
      <trkpt lat="46.6745" lon="5.59501">
        <ele>515</ele>
        <time>2020-06-18T13:53:30Z</time>
      </trkpt>
      <trkpt lat="46.67455" lon="5.59483">
        <ele>512</ele>
        <time>2020-06-18T13:53:48Z</time>
      </trkpt>
      <trkpt lat="46.67462" lon="5.59471">
        <ele>510</ele>
        <time>2020-06-18T13:54:02Z</time>
      </trkpt>
      <trkpt lat="46.6748" lon="5.59463">
        <ele>509</ele>
        <time>2020-06-18T13:54:27Z</time>
      </trkpt>
      <trkpt lat="46.6749" lon="5.5946">
        <ele>509</ele>
        <time>2020-06-18T13:54:41Z</time>
      </trkpt>
      <trkpt lat="46.67508" lon="5.59459">
        <ele>508</ele>
        <time>2020-06-18T13:55:05Z</time>
      </trkpt>
      <trkpt lat="46.67538" lon="5.5946">
        <ele>507</ele>
        <time>2020-06-18T13:55:45Z</time>
      </trkpt>
      <trkpt lat="46.67584" lon="5.59449">
        <ele>503</ele>
        <time>2020-06-18T13:56:47Z</time>
      </trkpt>
      <trkpt lat="46.67619" lon="5.59445">
        <ele>503</ele>
        <time>2020-06-18T13:57:34Z</time>
      </trkpt>
      <trkpt lat="46.67638" lon="5.59448">
        <ele>503</ele>
        <time>2020-06-18T13:58:00Z</time>
      </trkpt>
      <trkpt lat="46.67689" lon="5.59476">
        <ele>501</ele>
        <time>2020-06-18T13:59:12Z</time>
      </trkpt>
      <trkpt lat="46.6769" lon="5.59482">
        <ele>502</ele>
        <time>2020-06-18T13:59:18Z</time>
      </trkpt>
      <trkpt lat="46.67688" lon="5.59479">
        <ele>502</ele>
        <time>2020-06-18T13:59:22Z</time>
      </trkpt>
      <trkpt lat="46.67693" lon="5.59478">
        <ele>501</ele>
        <time>2020-06-18T13:59:29Z</time>
      </trkpt>
      <trkpt lat="46.67692" lon="5.59468">
        <ele>499</ele>
        <time>2020-06-18T13:59:38Z</time>
      </trkpt>
      <trkpt lat="46.67687" lon="5.59457">
        <ele>499</ele>
        <time>2020-06-18T13:59:50Z</time>
      </trkpt>
      <trkpt lat="46.67698" lon="5.59409">
        <ele>488</ele>
        <time>2020-06-18T14:00:36Z</time>
      </trkpt>
      <trkpt lat="46.67693" lon="5.59399">
        <ele>487</ele>
        <time>2020-06-18T14:00:48Z</time>
      </trkpt>
      <trkpt lat="46.67673" lon="5.59374">
        <ele>485</ele>
        <time>2020-06-18T14:01:23Z</time>
      </trkpt>
      <trkpt lat="46.67655" lon="5.59367">
        <ele>485</ele>
        <time>2020-06-18T14:01:48Z</time>
      </trkpt>
      <trkpt lat="46.67628" lon="5.59365">
        <ele>485</ele>
        <time>2020-06-18T14:02:24Z</time>
      </trkpt>
      <trkpt lat="46.67615" lon="5.5936">
        <ele>484</ele>
        <time>2020-06-18T14:02:42Z</time>
      </trkpt>
      <trkpt lat="46.67592" lon="5.5936">
        <ele>484</ele>
        <time>2020-06-18T14:03:12Z</time>
      </trkpt>
      <trkpt lat="46.67554" lon="5.59347">
        <ele>482</ele>
        <time>2020-06-18T14:04:04Z</time>
      </trkpt>
      <trkpt lat="46.67504" lon="5.59344">
        <ele>483</ele>
        <time>2020-06-18T14:05:11Z</time>
      </trkpt>
      <trkpt lat="46.67493" lon="5.59341">
        <ele>482</ele>
        <time>2020-06-18T14:05:26Z</time>
      </trkpt>
      <trkpt lat="46.67477" lon="5.5933">
        <ele>479</ele>
        <time>2020-06-18T14:05:50Z</time>
      </trkpt>
      <trkpt lat="46.67466" lon="5.59327">
        <ele>477</ele>
        <time>2020-06-18T14:06:05Z</time>
      </trkpt>
      <trkpt lat="46.67454" lon="5.5933">
        <ele>478</ele>
        <time>2020-06-18T14:06:21Z</time>
      </trkpt>
      <trkpt lat="46.67441" lon="5.59328">
        <ele>477</ele>
        <time>2020-06-18T14:06:38Z</time>
      </trkpt>
      <trkpt lat="46.67429" lon="5.59331">
        <ele>478</ele>
        <time>2020-06-18T14:06:55Z</time>
      </trkpt>
      <trkpt lat="46.67384" lon="5.59318">
        <ele>471</ele>
        <time>2020-06-18T14:07:56Z</time>
      </trkpt>
      <trkpt lat="46.67365" lon="5.59315">
        <ele>468</ele>
        <time>2020-06-18T14:08:21Z</time>
      </trkpt>
      <trkpt lat="46.67311" lon="5.59318">
        <ele>466</ele>
        <time>2020-06-18T14:09:33Z</time>
      </trkpt>
      <trkpt lat="46.67277" lon="5.59315">
        <ele>464</ele>
        <time>2020-06-18T14:10:19Z</time>
      </trkpt>
      <trkpt lat="46.6726" lon="5.5931">
        <ele>462</ele>
        <time>2020-06-18T14:10:42Z</time>
      </trkpt>
      <trkpt lat="46.6725" lon="5.59299">
        <ele>458</ele>
        <time>2020-06-18T14:10:59Z</time>
      </trkpt>
      <trkpt lat="46.67193" lon="5.5926">
        <ele>445</ele>
        <time>2020-06-18T14:12:23Z</time>
      </trkpt>
      <trkpt lat="46.67177" lon="5.59245">
        <ele>440</ele>
        <time>2020-06-18T14:12:48Z</time>
      </trkpt>
      <trkpt lat="46.6716" lon="5.59213">
        <ele>432</ele>
        <time>2020-06-18T14:13:25Z</time>
      </trkpt>
      <trkpt lat="46.67151" lon="5.59186">
        <ele>425</ele>
        <time>2020-06-18T14:13:53Z</time>
      </trkpt>
      <trkpt lat="46.67138" lon="5.59161">
        <ele>419</ele>
        <time>2020-06-18T14:14:21Z</time>
      </trkpt>
      <trkpt lat="46.67115" lon="5.59105">
        <ele>407</ele>
        <time>2020-06-18T14:15:21Z</time>
      </trkpt>
      <trkpt lat="46.67099" lon="5.59061">
        <ele>399</ele>
        <time>2020-06-18T14:16:07Z</time>
      </trkpt>
      <trkpt lat="46.6708" lon="5.58996">
        <ele>389</ele>
        <time>2020-06-18T14:17:12Z</time>
      </trkpt>
      <trkpt lat="46.67055" lon="5.58922">
        <ele>379</ele>
        <time>2020-06-18T14:18:27Z</time>
      </trkpt>
      <trkpt lat="46.67054" lon="5.58912">
        <ele>378</ele>
        <time>2020-06-18T14:18:36Z</time>
      </trkpt>
      <trkpt lat="46.67051" lon="5.58907">
        <ele>377</ele>
        <time>2020-06-18T14:18:42Z</time>
      </trkpt>
      <trkpt lat="46.67053" lon="5.58907">
        <ele>377</ele>
        <time>2020-06-18T14:18:45Z</time>
      </trkpt>
      <trkpt lat="46.67047" lon="5.58896">
        <ele>376</ele>
        <time>2020-06-18T14:18:58Z</time>
      </trkpt>
      <trkpt lat="46.67036" lon="5.58858">
        <ele>371</ele>
        <time>2020-06-18T14:19:36Z</time>
      </trkpt>
      <trkpt lat="46.67003" lon="5.58795">
        <ele>362</ele>
        <time>2020-06-18T14:20:48Z</time>
      </trkpt>
      <trkpt lat="46.66996" lon="5.58777">
        <ele>359</ele>
        <time>2020-06-18T14:21:07Z</time>
      </trkpt>
      <trkpt lat="46.66987" lon="5.58764">
        <ele>356</ele>
        <time>2020-06-18T14:21:24Z</time>
      </trkpt>
      <trkpt lat="46.66934" lon="5.58731">
        <ele>346</ele>
        <time>2020-06-18T14:22:41Z</time>
      </trkpt>
      <trkpt lat="46.66924" lon="5.5872">
        <ele>344</ele>
        <time>2020-06-18T14:22:58Z</time>
      </trkpt>
      <trkpt lat="46.66916" lon="5.58715">
        <ele>343</ele>
        <time>2020-06-18T14:23:09Z</time>
      </trkpt>
      <trkpt lat="46.66908" lon="5.58706">
        <ele>342</ele>
        <time>2020-06-18T14:23:23Z</time>
      </trkpt>
      <trkpt lat="46.66883" lon="5.58663">
        <ele>336</ele>
        <time>2020-06-18T14:24:14Z</time>
      </trkpt>
      <trkpt lat="46.66873" lon="5.58627">
        <ele>331</ele>
        <time>2020-06-18T14:24:50Z</time>
      </trkpt>
      <trkpt lat="46.66896" lon="5.58617">
        <ele>330</ele>
        <time>2020-06-18T14:25:22Z</time>
      </trkpt>
      <trkpt lat="46.669" lon="5.58612">
        <ele>330</ele>
        <time>2020-06-18T14:25:29Z</time>
      </trkpt>
      <trkpt lat="46.66903" lon="5.58587">
        <ele>326</ele>
        <time>2020-06-18T14:25:52Z</time>
      </trkpt>
      <trkpt lat="46.66895" lon="5.58537">
        <ele>322</ele>
        <time>2020-06-18T14:26:39Z</time>
      </trkpt>
      <trkpt lat="46.66895" lon="5.58516">
        <ele>320</ele>
        <time>2020-06-18T14:26:59Z</time>
      </trkpt>
      <trkpt lat="46.6689" lon="5.58501">
        <ele>318</ele>
        <time>2020-06-18T14:27:14Z</time>
      </trkpt>
      <trkpt lat="46.66886" lon="5.58461">
        <ele>315</ele>
        <time>2020-06-18T14:27:51Z</time>
      </trkpt>
      <trkpt lat="46.66873" lon="5.58431">
        <ele>313</ele>
        <time>2020-06-18T14:28:23Z</time>
      </trkpt>
      <trkpt lat="46.66844" lon="5.58387">
        <ele>311</ele>
        <time>2020-06-18T14:29:19Z</time>
      </trkpt>
      <trkpt lat="46.66823" lon="5.58366">
        <ele>309</ele>
        <time>2020-06-18T14:29:53Z</time>
      </trkpt>
      <trkpt lat="46.66796" lon="5.58346">
        <ele>307</ele>
        <time>2020-06-18T14:30:34Z</time>
      </trkpt>
      <trkpt lat="46.66759" lon="5.58332">
        <ele>306</ele>
        <time>2020-06-18T14:31:25Z</time>
      </trkpt>
      <trkpt lat="46.66738" lon="5.58322">
        <ele>305</ele>
        <time>2020-06-18T14:31:54Z</time>
      </trkpt>
      <trkpt lat="46.66724" lon="5.58312">
        <ele>304</ele>
        <time>2020-06-18T14:32:15Z</time>
      </trkpt>
      <trkpt lat="46.66701" lon="5.58277">
        <ele>302</ele>
        <time>2020-06-18T14:32:59Z</time>
      </trkpt>
      <trkpt lat="46.66671" lon="5.58251">
        <ele>299</ele>
        <time>2020-06-18T14:33:46Z</time>
      </trkpt>
      <trkpt lat="46.66631" lon="5.58236">
        <ele>295</ele>
        <time>2020-06-18T14:34:41Z</time>
      </trkpt>
      <trkpt lat="46.66595" lon="5.58226">
        <ele>290</ele>
        <time>2020-06-18T14:35:30Z</time>
      </trkpt>
      <trkpt lat="46.66579" lon="5.58215">
        <ele>288</ele>
        <time>2020-06-18T14:35:54Z</time>
      </trkpt>
      <trkpt lat="46.66565" lon="5.582">
        <ele>287</ele>
        <time>2020-06-18T14:36:17Z</time>
      </trkpt>
      <trkpt lat="46.66559" lon="5.58174">
        <ele>286</ele>
        <time>2020-06-18T14:36:42Z</time>
      </trkpt>
      <trkpt lat="46.66555" lon="5.58169">
        <ele>286</ele>
        <time>2020-06-18T14:36:49Z</time>
      </trkpt>
      <trkpt lat="46.66526" lon="5.58158">
        <ele>286</ele>
        <time>2020-06-18T14:37:29Z</time>
      </trkpt>
      <trkpt lat="46.66516" lon="5.58165">
        <ele>286</ele>
        <time>2020-06-18T14:37:44Z</time>
      </trkpt>
      <trkpt lat="46.66515" lon="5.58172">
        <ele>286</ele>
        <time>2020-06-18T14:37:50Z</time>
      </trkpt>
      <trkpt lat="46.66517" lon="5.5817">
        <ele>286</ele>
        <time>2020-06-18T14:37:53Z</time>
      </trkpt>
      <trkpt lat="46.66517" lon="5.58173">
        <ele>286</ele>
        <time>2020-06-18T14:37:56Z</time>
      </trkpt>
    </trkseg>
  </trk>
</gpx>